Time;durP1;ratioP1;P1;durP2;ratioP2;P2;SDS_P1;SDS_P2;PMS_P1;PMS_P2;Temp;Humidity;BMP_temperature;BMP_pressure;BME280_temperature;BME280_humidity;BME280_pressure;Samples;Min_cycle;Max_cycle;Signal;HPM_P1;HPM_P2
2023/05/31 00:01:40;;;;;;;5.10;2.77;;;13.20;93.20;;;;;;488138;244;28358;-83
2023/05/31 00:03:43;;;;;;;5.63;2.50;;;13.10;93.40;;;;;;488192;244;28409;-81
2023/05/31 00:05:43;;;;;;;6.20;3.40;;;13.10;93.60;;;;;;488006;244;28857;-83
2023/05/31 00:07:44;;;;;;;7.10;2.97;;;13.00;93.70;;;;;;488011;244;29246;-80
2023/05/31 00:09:45;;;;;;;6.07;3.37;;;13.00;94.00;;;;;;488037;244;28947;-80
2023/05/31 00:11:47;;;;;;;4.20;2.50;;;12.90;94.10;;;;;;487975;244;28510;-80
2023/05/31 00:13:48;;;;;;;6.17;2.53;;;12.90;94.10;;;;;;488091;244;28789;-82
2023/05/31 00:15:49;;;;;;;6.33;3.07;;;12.90;94.30;;;;;;488005;244;28191;-82
2023/05/31 00:17:50;;;;;;;11.87;2.80;;;12.90;94.30;;;;;;488094;244;28193;-79
2023/05/31 00:19:52;;;;;;;4.43;2.57;;;12.90;94.40;;;;;;488043;244;28424;-79
2023/05/31 00:21:53;;;;;;;7.67;2.80;;;12.90;94.40;;;;;;488080;244;28508;-80
2023/05/31 00:23:54;;;;;;;5.67;2.80;;;12.80;94.60;;;;;;488116;244;28509;-80
2023/05/31 00:25:55;;;;;;;8.80;3.33;;;12.80;94.40;;;;;;488061;244;28324;-81
2023/05/31 00:27:57;;;;;;;7.77;2.47;;;12.80;94.60;;;;;;488073;244;28372;-80
2023/05/31 00:29:58;;;;;;;4.40;2.90;;;12.80;94.80;;;;;;488141;244;28787;-79
2023/05/31 00:31:59;;;;;;;5.27;2.30;;;12.70;95.00;;;;;;488125;244;28661;-80
2023/05/31 00:34:00;;;;;;;6.40;2.70;;;12.70;95.10;;;;;;488155;244;28913;-80
2023/05/31 00:36:02;;;;;;;6.90;2.87;;;12.70;95.20;;;;;;488141;244;28080;-80
2023/05/31 00:38:03;;;;;;;7.63;2.67;;;12.60;95.40;;;;;;488159;244;28175;-79
2023/05/31 00:40:05;;;;;;;10.77;2.90;;;12.60;95.40;;;;;;488135;244;28132;-81
2023/05/31 00:42:05;;;;;;;4.33;2.00;;;12.60;95.70;;;;;;488076;244;28162;-80
2023/05/31 00:44:07;;;;;;;7.23;2.97;;;12.60;95.80;;;;;;488096;244;28278;-80
2023/05/31 00:46:08;;;;;;;5.17;2.63;;;12.60;95.90;;;;;;488012;244;28170;-81
2023/05/31 00:48:09;;;;;;;3.93;2.43;;;12.60;95.50;;;;;;488090;244;28074;-80
2023/05/31 00:50:10;;;;;;;4.67;2.70;;;12.60;96.10;;;;;;488095;244;28260;-79
2023/05/31 00:52:12;;;;;;;7.77;2.53;;;12.60;96.20;;;;;;488116;244;28189;-79
2023/05/31 00:54:13;;;;;;;6.90;2.37;;;12.50;96.20;;;;;;488102;244;29108;-79
2023/05/31 00:56:14;;;;;;;5.70;2.50;;;12.50;96.20;;;;;;488124;244;28610;-81
2023/05/31 00:58:16;;;;;;;3.70;2.70;;;12.50;96.40;;;;;;488075;244;28774;-80
2023/05/31 01:00:17;;;;;;;6.93;2.40;;;12.50;97.00;;;;;;488092;244;28089;-79
2023/05/31 01:02:18;;;;;;;6.20;2.83;;;12.50;97.00;;;;;;487976;244;28083;-80
2023/05/31 01:04:19;;;;;;;5.40;2.50;;;12.50;96.80;;;;;;488043;244;28157;-78
2023/05/31 01:06:21;;;;;;;5.67;2.80;;;12.50;96.80;;;;;;487996;244;28811;-80
2023/05/31 01:08:22;;;;;;;3.00;2.40;;;12.50;96.80;;;;;;488021;244;29042;-82
2023/05/31 01:10:23;;;;;;;4.80;2.40;;;12.40;97.00;;;;;;488047;244;28851;-80
2023/05/31 01:12:24;;;;;;;6.60;2.90;;;12.40;97.30;;;;;;488129;244;28727;-80
2023/05/31 01:14:25;;;;;;;4.77;2.40;;;12.40;97.50;;;;;;487984;244;28178;-80
2023/05/31 01:16:27;;;;;;;3.87;2.40;;;12.40;97.90;;;;;;488023;244;28403;-79
2023/05/31 01:18:31;;;;;;;6.17;2.83;;;12.30;98.40;;;;;;488049;241;28426;-80
2023/05/31 01:20:31;;;;;;;6.07;2.50;;;12.40;98.50;;;;;;487950;244;28076;-80
2023/05/31 01:22:32;;;;;;;3.50;2.50;;;12.30;98.20;;;;;;487846;244;28460;-82
2023/05/31 01:24:32;;;;;;;4.77;2.67;;;12.30;98.00;;;;;;487913;244;28066;-80
2023/05/31 01:26:33;;;;;;;4.70;2.93;;;12.30;97.80;;;;;;488007;244;28074;-81
2023/05/31 01:28:34;;;;;;;4.87;2.73;;;12.30;98.20;;;;;;487967;244;28226;-81
2023/05/31 01:30:36;;;;;;;3.00;2.70;;;12.20;98.60;;;;;;487992;244;28392;-78
2023/05/31 01:32:37;;;;;;;3.83;2.50;;;12.20;98.80;;;;;;488100;244;28482;-80
2023/05/31 01:34:38;;;;;;;6.90;3.50;;;12.20;99.30;;;;;;488238;244;28634;-80
2023/05/31 01:36:41;;;;;;;3.60;2.37;;;;;;;;;;488294;244;28899;-82
2023/05/31 01:38:42;;;;;;;3.13;2.40;;;12.10;99.30;;;;;;488246;244;26361;-80
2023/05/31 01:40:43;;;;;;;3.43;2.23;;;12.10;98.80;;;;;;488157;244;28074;-82
2023/05/31 01:42:44;;;;;;;5.70;2.50;;;12.00;99.90;;;;;;488111;244;28384;-81
2023/05/31 01:44:47;;;;;;;4.20;2.53;;;12.00;99.60;;;;;;488157;244;28092;-82
2023/05/31 01:46:47;;;;;;;11.83;3.17;;;11.90;99.90;;;;;;488173;244;28595;-79
2023/05/31 01:48:48;;;;;;;6.63;3.00;;;11.90;99.80;;;;;;488182;244;28070;-79
2023/05/31 01:50:49;;;;;;;4.07;2.33;;;11.90;99.90;;;;;;488163;244;28505;-81
2023/05/31 01:52:50;;;;;;;2.80;2.13;;;11.90;99.90;;;;;;488159;244;28215;-80
2023/05/31 01:54:52;;;;;;;6.30;3.00;;;11.90;99.90;;;;;;488181;244;28270;-78
2023/05/31 01:56:53;;;;;;;4.27;2.53;;;11.80;99.90;;;;;;488185;244;28176;-80
2023/05/31 01:58:54;;;;;;;8.90;2.70;;;11.80;99.90;;;;;;488203;244;28297;-80
2023/05/31 02:00:55;;;;;;;4.20;2.20;;;11.80;99.90;;;;;;488133;244;28121;-81
2023/05/31 02:02:57;;;;;;;4.80;2.20;;;11.80;99.90;;;;;;488101;244;28059;-80
2023/05/31 02:04:59;;;;;;;5.70;2.20;;;11.80;99.90;;;;;;488112;244;28147;-81
2023/05/31 02:07:00;;;;;;;5.17;2.73;;;11.80;99.90;;;;;;488017;244;28195;-81
2023/05/31 02:09:00;;;;;;;7.33;2.93;;;11.70;99.90;;;;;;488107;244;28308;-80
2023/05/31 02:11:02;;;;;;;2.93;2.63;;;11.70;99.90;;;;;;488036;244;28785;-79
2023/05/31 02:13:03;;;;;;;4.90;3.00;;;11.60;99.90;;;;;;488086;244;28362;-80
2023/05/31 02:15:04;;;;;;;5.63;2.90;;;11.60;99.90;;;;;;488091;244;30038;-80
2023/05/31 02:17:05;;;;;;;7.27;3.13;;;11.50;99.90;;;;;;488121;244;28029;-80
2023/05/31 02:19:08;;;;;;;5.23;2.40;;;11.50;99.90;;;;;;488109;244;28305;-79
2023/05/31 02:21:08;;;;;;;7.07;3.20;;;11.60;99.90;;;;;;488120;244;28194;-80
2023/05/31 02:23:09;;;;;;;5.57;2.63;;;11.50;99.90;;;;;;488172;244;28044;-80
2023/05/31 02:25:12;;;;;;;6.17;2.80;;;;;;;;;;488207;244;28353;-81
2023/05/31 02:27:13;;;;;;;5.83;2.40;;;11.50;99.90;;;;;;488205;244;27694;-80
2023/05/31 02:29:14;;;;;;;4.00;2.67;;;11.60;99.90;;;;;;488213;244;28450;-81
2023/05/31 02:31:15;;;;;;;4.70;3.00;;;11.50;99.90;;;;;;488192;244;27949;-80
2023/05/31 02:33:17;;;;;;;7.83;2.93;;;11.50;99.90;;;;;;488206;244;28415;-80
2023/05/31 02:35:18;;;;;;;5.37;2.60;;;11.50;99.90;;;;;;488210;244;28050;-80
2023/05/31 02:37:19;;;;;;;5.70;2.70;;;11.50;99.90;;;;;;488119;244;28373;-80
2023/05/31 02:39:20;;;;;;;9.80;2.97;;;11.50;99.90;;;;;;488144;244;28219;-81
2023/05/31 02:41:22;;;;;;;4.97;3.07;;;11.50;99.90;;;;;;488091;244;27979;-81
2023/05/31 02:43:23;;;;;;;3.77;2.70;;;11.50;99.90;;;;;;488067;244;28615;-79
2023/05/31 02:45:24;;;;;;;6.67;3.40;;;11.60;99.90;;;;;;488103;244;28301;-80
2023/05/31 02:47:25;;;;;;;5.10;2.80;;;11.60;99.90;;;;;;488069;244;28886;-80
2023/05/31 02:49:27;;;;;;;8.33;3.10;;;11.70;99.90;;;;;;488132;244;28515;-80
2023/05/31 02:51:28;;;;;;;6.30;3.50;;;11.70;99.90;;;;;;488098;244;28313;-79
2023/05/31 02:53:30;;;;;;;10.60;3.70;;;11.70;99.90;;;;;;488100;244;29137;-80
2023/05/31 02:55:32;;;;;;;7.63;2.90;;;;;;;;;;488061;244;28431;-81
2023/05/31 02:57:33;;;;;;;8.43;3.20;;;11.80;99.90;;;;;;488093;244;26793;-80
2023/05/31 02:59:34;;;;;;;7.03;2.90;;;11.80;99.90;;;;;;488073;244;28217;-80
2023/05/31 03:01:37;;;;;;;5.23;2.93;;;;;;;;;;488110;244;28464;-81
2023/05/31 03:03:38;;;;;;;8.83;4.00;;;11.80;99.90;;;;;;488084;244;26596;-80
2023/05/31 03:05:39;;;;;;;10.47;3.30;;;11.80;99.90;;;;;;488130;244;28265;-78
2023/05/31 03:07:40;;;;;;;6.80;3.17;;;11.80;99.90;;;;;;488179;244;28417;-80
2023/05/31 03:09:42;;;;;;;5.93;3.03;;;11.90;99.90;;;;;;488091;244;28219;-81
2023/05/31 03:11:43;;;;;;;6.30;3.10;;;11.90;99.90;;;;;;488147;244;28195;-81
2023/05/31 03:13:44;;;;;;;6.10;3.23;;;11.90;99.90;;;;;;488068;244;28313;-79
2023/05/31 03:15:46;;;;;;;6.80;3.00;;;11.90;99.90;;;;;;488087;244;28729;-80
2023/05/31 03:17:47;;;;;;;7.90;3.50;;;11.90;99.90;;;;;;488171;244;27950;-81
2023/05/31 03:19:48;;;;;;;5.37;3.10;;;11.90;99.90;;;;;;488134;244;29046;-80
2023/05/31 03:21:49;;;;;;;7.97;3.10;;;11.90;99.90;;;;;;488188;244;27910;-81
2023/05/31 03:23:50;;;;;;;7.50;2.83;;;11.90;99.90;;;;;;488145;244;28198;-80
2023/05/31 03:25:52;;;;;;;11.63;3.03;;;11.90;99.90;;;;;;488176;244;28223;-82
2023/05/31 03:27:53;;;;;;;4.80;2.73;;;11.90;99.90;;;;;;488139;244;28286;-82
2023/05/31 03:29:55;;;;;;;9.03;3.70;;;11.90;99.90;;;;;;488160;244;28409;-80
2023/05/31 03:31:55;;;;;;;5.20;2.77;;;11.90;99.90;;;;;;488233;244;28317;-80
2023/05/31 03:33:57;;;;;;;11.43;3.00;;;11.90;99.90;;;;;;488153;244;28709;-80
2023/05/31 03:35:58;;;;;;;13.00;3.80;;;12.00;99.90;;;;;;488185;244;28221;-82
2023/05/31 03:37:59;;;;;;;8.97;3.20;;;12.00;99.90;;;;;;488177;244;28186;-80
2023/05/31 03:40:00;;;;;;;10.27;4.03;;;12.00;99.90;;;;;;488146;244;28190;-80
2023/05/31 03:42:03;;;;;;;10.20;3.30;;;;;;;;;;488159;244;28794;-82
2023/05/31 03:44:04;;;;;;;4.80;3.07;;;11.90;99.90;;;;;;488165;244;26934;-82
2023/05/31 03:46:05;;;;;;;8.23;3.20;;;11.90;99.90;;;;;;488197;244;28279;-80
2023/05/31 03:48:07;;;;;;;9.20;3.10;;;11.90;99.90;;;;;;488212;244;28198;-79
2023/05/31 03:50:08;;;;;;;10.70;3.57;;;11.90;99.90;;;;;;488227;244;28273;-82
2023/05/31 03:52:12;;;;;;;14.33;3.80;;;11.80;99.90;;;;;;488206;241;28081;-80
2023/05/31 03:54:10;;;;;;;5.70;3.70;;;11.80;99.90;;;;;;487993;244;27984;-79
2023/05/31 03:56:12;;;;;;;8.03;3.73;;;11.80;99.90;;;;;;488253;244;28321;-79
2023/05/31 03:58:13;;;;;;;5.13;2.90;;;11.80;99.90;;;;;;488212;241;28212;-79
2023/05/31 04:00:14;;;;;;;7.47;3.30;;;11.80;99.90;;;;;;488223;244;28184;-80
2023/05/31 04:02:15;;;;;;;16.87;4.40;;;11.80;99.90;;;;;;488215;244;28212;-80
2023/05/31 04:04:17;;;;;;;11.30;3.80;;;11.80;99.90;;;;;;488239;244;28322;-81
2023/05/31 04:06:20;;;;;;;6.80;3.30;;;;;;;;;;488243;244;28359;-81
2023/05/31 04:08:20;;;;;;;11.10;3.77;;;11.80;99.90;;;;;;488124;244;27251;-80
2023/05/31 04:10:22;;;;;;;11.03;3.67;;;11.90;99.90;;;;;;488172;244;28507;-79
2023/05/31 04:12:23;;;;;;;7.53;3.50;;;11.90;99.90;;;;;;488202;244;27996;-81
2023/05/31 04:14:24;;;;;;;11.23;3.70;;;11.90;99.90;;;;;;488234;244;27949;-79
2023/05/31 04:16:25;;;;;;;5.90;3.67;;;12.00;99.90;;;;;;488184;241;28053;-79
2023/05/31 04:18:26;;;;;;;7.07;3.30;;;12.00;99.90;;;;;;488208;244;28229;-80
2023/05/31 04:20:28;;;;;;;7.20;3.30;;;12.00;99.90;;;;;;488155;244;28067;-80
2023/05/31 04:22:29;;;;;;;10.63;3.90;;;12.10;99.90;;;;;;488178;244;28725;-80
2023/05/31 04:24:31;;;;;;;9.37;3.63;;;12.00;99.90;;;;;;488136;244;28559;-79
2023/05/31 04:26:33;;;;;;;10.80;3.37;;;12.00;99.90;;;;;;488120;244;28610;-80
2023/05/31 04:28:33;;;;;;;9.67;3.30;;;12.00;99.90;;;;;;488002;244;28222;-81
2023/05/31 04:30:34;;;;;;;6.73;3.10;;;12.00;99.90;;;;;;488169;244;28293;-81
2023/05/31 04:32:35;;;;;;;9.17;3.67;;;12.00;99.90;;;;;;488021;244;28069;-83
2023/05/31 04:34:37;;;;;;;8.37;3.57;;;12.00;99.90;;;;;;488102;244;28064;-82
2023/05/31 04:36:39;;;;;;;20.17;3.90;;;12.10;99.90;;;;;;488167;241;28313;-80
2023/05/31 04:38:39;;;;;;;9.13;3.83;;;12.10;99.90;;;;;;488055;244;28287;-82
2023/05/31 04:40:42;;;;;;;6.50;3.30;;;12.10;99.90;;;;;;488111;244;28176;-82
2023/05/31 04:42:42;;;;;;;6.53;3.53;;;12.00;99.90;;;;;;488011;244;28088;-80
2023/05/31 04:44:43;;;;;;;10.00;3.73;;;12.00;99.90;;;;;;488090;244;28404;-81
2023/05/31 04:46:44;;;;;;;9.73;3.93;;;12.10;99.90;;;;;;488085;244;28513;-81
2023/05/31 04:48:49;;;;;;;8.40;3.37;;;12.10;99.90;;;;;;488121;244;28674;-81
2023/05/31 04:50:48;;;;;;;9.73;3.60;;;12.10;99.90;;;;;;487818;244;28692;-81
2023/05/31 04:52:48;;;;;;;8.80;3.70;;;12.10;99.90;;;;;;488085;244;28333;-80
2023/05/31 04:54:49;;;;;;;12.83;4.00;;;12.20;99.90;;;;;;488116;244;28211;-81
2023/05/31 04:56:50;;;;;;;12.97;4.27;;;12.10;99.90;;;;;;488185;244;28149;-81
2023/05/31 04:58:52;;;;;;;13.90;3.60;;;12.20;99.90;;;;;;488221;244;28078;-81
2023/05/31 05:00:55;;;;;;;8.37;3.60;;;12.20;99.90;;;;;;488266;244;28085;-80
2023/05/31 05:02:54;;;;;;;13.73;4.23;;;12.20;99.90;;;;;;488109;244;28587;-81
2023/05/31 05:04:55;;;;;;;6.53;3.13;;;12.20;99.90;;;;;;488110;244;28199;-83
2023/05/31 05:06:57;;;;;;;13.50;3.60;;;12.30;99.90;;;;;;488158;244;28639;-80
2023/05/31 05:08:58;;;;;;;9.50;3.97;;;12.30;99.90;;;;;;488167;244;28885;-81
2023/05/31 05:11:00;;;;;;;14.93;3.30;;;;;;;;;;488255;244;28847;-81
2023/05/31 05:13:01;;;;;;;5.23;3.27;;;12.40;99.90;;;;;;488415;244;26589;-81
2023/05/31 05:15:03;;;;;;;7.40;3.30;;;12.40;99.90;;;;;;488524;244;28666;-81
2023/05/31 05:17:04;;;;;;;7.00;3.63;;;12.50;99.90;;;;;;488500;244;28063;-79
2023/05/31 05:19:07;;;;;;;7.40;3.77;;;;;;;;;;488523;244;28657;-84
2023/05/31 05:21:08;;;;;;;6.17;3.90;;;12.50;99.90;;;;;;488336;244;26490;-79
2023/05/31 05:23:09;;;;;;;8.37;3.67;;;12.50;99.90;;;;;;488232;244;28224;-80
2023/05/31 05:25:10;;;;;;;7.60;3.90;;;12.60;99.90;;;;;;488430;244;27975;-80
2023/05/31 05:27:11;;;;;;;5.83;3.67;;;12.70;99.90;;;;;;488406;244;28158;-81
2023/05/31 05:29:13;;;;;;;9.40;4.57;;;12.70;99.90;;;;;;488278;244;28089;-80
2023/05/31 05:31:14;;;;;;;15.10;4.47;;;12.80;99.90;;;;;;488243;244;28069;-81
2023/05/31 05:33:15;;;;;;;15.43;4.13;;;12.90;99.90;;;;;;488130;244;28838;-80
2023/05/31 05:35:16;;;;;;;9.10;4.00;;;12.90;99.90;;;;;;488189;244;28758;-82
2023/05/31 05:37:18;;;;;;;6.00;3.50;;;12.90;99.90;;;;;;488166;244;28172;-80
2023/05/31 05:39:19;;;;;;;6.70;3.63;;;13.00;99.90;;;;;;488111;244;28278;-79
2023/05/31 05:41:20;;;;;;;10.27;4.00;;;13.00;99.90;;;;;;488139;241;28057;-82
2023/05/31 05:43:22;;;;;;;5.73;3.40;;;13.10;99.90;;;;;;488083;244;28087;-80
2023/05/31 05:45:23;;;;;;;9.67;3.00;;;13.20;99.90;;;;;;488042;244;28402;-82
2023/05/31 05:47:24;;;;;;;6.87;3.37;;;13.20;99.90;;;;;;488051;244;28406;-81
2023/05/31 05:49:26;;;;;;;5.53;2.97;;;13.20;99.90;;;;;;488042;244;28905;-80
2023/05/31 05:51:27;;;;;;;10.77;3.40;;;13.30;99.90;;;;;;488066;244;28172;-82
2023/05/31 05:53:28;;;;;;;12.30;4.20;;;13.30;99.90;;;;;;488056;244;28086;-81
2023/05/31 05:55:29;;;;;;;7.03;3.20;;;13.40;99.90;;;;;;488025;244;29483;-81
2023/05/31 05:57:30;;;;;;;9.90;3.53;;;13.40;99.90;;;;;;487993;244;28876;-84
2023/05/31 05:59:32;;;;;;;7.50;3.40;;;13.50;99.90;;;;;;487910;244;29455;-80
2023/05/31 06:01:33;;;;;;;9.80;3.40;;;13.60;99.90;;;;;;487914;244;28924;-81
2023/05/31 06:03:34;;;;;;;10.03;3.23;;;13.60;99.90;;;;;;487903;244;28500;-82
2023/05/31 06:05:36;;;;;;;6.93;3.30;;;13.70;99.90;;;;;;487846;244;28393;-81
2023/05/31 06:07:37;;;;;;;10.70;3.47;;;13.80;99.90;;;;;;487803;244;28903;-81
2023/05/31 06:09:38;;;;;;;6.00;3.10;;;13.90;99.90;;;;;;487858;244;28810;-81
2023/05/31 06:11:39;;;;;;;4.13;2.90;;;13.90;99.90;;;;;;487723;244;28896;-82
2023/05/31 06:13:40;;;;;;;6.93;3.20;;;14.00;99.90;;;;;;487741;244;28880;-83
2023/05/31 06:15:42;;;;;;;4.30;2.73;;;14.10;99.90;;;;;;487628;241;28501;-82
2023/05/31 06:17:43;;;;;;;8.30;3.10;;;14.30;99.90;;;;;;487623;244;29236;-82
2023/05/31 06:19:45;;;;;;;7.40;3.10;;;14.20;99.90;;;;;;487518;244;29274;-81
2023/05/31 06:21:46;;;;;;;9.07;3.13;;;14.30;99.90;;;;;;487441;244;29380;-83
2023/05/31 06:23:47;;;;;;;10.70;3.07;;;14.40;99.90;;;;;;487474;244;29261;-83
2023/05/31 06:25:48;;;;;;;9.37;3.47;;;14.40;99.90;;;;;;487428;244;28813;-79
2023/05/31 06:27:49;;;;;;;13.43;3.20;;;14.50;99.90;;;;;;487444;241;28804;-84
2023/05/31 06:29:57;;;;;;;7.73;3.50;;;14.60;99.90;;;;;;487352;244;28901;-83
2023/05/31 06:31:52;;;;;;;7.40;3.27;;;14.60;99.40;;;;;;486901;244;28879;-85
2023/05/31 06:33:53;;;;;;;9.23;3.57;;;14.60;99.30;;;;;;487309;244;28826;-84
2023/05/31 06:35:54;;;;;;;7.07;3.20;;;14.70;99.50;;;;;;487411;244;28839;-82
2023/05/31 06:37:55;;;;;;;6.20;3.20;;;14.80;99.60;;;;;;487556;244;28804;-84
2023/05/31 06:39:57;;;;;;;7.73;2.83;;;14.80;99.00;;;;;;487321;244;28816;-83
2023/05/31 06:41:59;;;;;;;7.90;3.53;;;14.90;98.40;;;;;;487297;244;29902;-84
2023/05/31 06:43:59;;;;;;;12.50;3.13;;;15.00;98.50;;;;;;487156;244;29286;-82
2023/05/31 06:46:00;;;;;;;13.00;3.23;;;15.00;98.00;;;;;;487222;244;29432;-81
2023/05/31 06:48:02;;;;;;;9.20;3.13;;;15.00;98.10;;;;;;487210;244;28807;-83
2023/05/31 06:50:03;;;;;;;9.83;3.50;;;15.10;98.30;;;;;;487227;244;28823;-84
2023/05/31 06:52:05;;;;;;;9.83;3.17;;;15.20;98.10;;;;;;487201;244;28812;-82
2023/05/31 06:54:05;;;;;;;4.10;2.77;;;15.30;97.00;;;;;;487146;244;28802;-84
2023/05/31 06:56:07;;;;;;;5.47;2.70;;;15.40;97.10;;;;;;487194;244;28905;-79
2023/05/31 06:58:08;;;;;;;6.80;2.97;;;15.40;96.50;;;;;;487216;244;28806;-82
2023/05/31 07:00:10;;;;;;;8.83;2.60;;;15.50;96.50;;;;;;487185;244;28796;-84
2023/05/31 07:02:11;;;;;;;8.73;3.50;;;15.50;96.20;;;;;;487151;244;28895;-83
2023/05/31 07:04:12;;;;;;;5.30;3.20;;;15.50;96.20;;;;;;487179;244;28811;-83
2023/05/31 07:06:13;;;;;;;4.70;3.10;;;15.70;96.00;;;;;;487176;244;29293;-82
2023/05/31 07:08:17;;;;;;;6.03;2.90;;;15.60;95.40;;;;;;487191;244;29234;-83
2023/05/31 07:10:18;;;;;;;6.47;3.13;;;15.70;95.30;;;;;;487174;244;28801;-82
2023/05/31 07:12:20;;;;;;;7.33;3.60;;;15.80;95.40;;;;;;487191;244;28806;-83
2023/05/31 07:14:22;;;;;;;3.93;2.73;;;15.80;95.50;;;;;;487117;244;28832;-81
2023/05/31 07:16:22;;;;;;;5.67;2.50;;;16.00;95.50;;;;;;487128;241;28796;-83
2023/05/31 07:18:23;;;;;;;5.00;3.03;;;15.90;95.00;;;;;;487175;244;28931;-82
2023/05/31 07:20:25;;;;;;;9.77;2.77;;;16.00;94.80;;;;;;487156;241;28807;-82
2023/05/31 07:22:26;;;;;;;7.03;2.77;;;16.00;94.70;;;;;;487133;244;28793;-83
2023/05/31 07:24:27;;;;;;;4.63;2.63;;;16.10;94.50;;;;;;487120;244;29466;-80
2023/05/31 07:26:28;;;;;;;7.63;2.77;;;16.30;94.60;;;;;;487155;244;29232;-82
2023/05/31 07:28:30;;;;;;;10.10;2.87;;;16.40;94.00;;;;;;487173;244;29301;-80
2023/05/31 07:30:31;;;;;;;5.03;2.83;;;16.40;93.60;;;;;;487136;242;28929;-83
2023/05/31 07:32:32;;;;;;;8.20;3.07;;;16.40;93.30;;;;;;487154;244;28820;-83
2023/05/31 07:34:33;;;;;;;7.30;2.90;;;16.50;93.60;;;;;;487094;244;28807;-81
2023/05/31 07:36:35;;;;;;;5.80;2.83;;;16.60;93.10;;;;;;487149;244;28805;-81
2023/05/31 07:38:36;;;;;;;7.90;3.03;;;16.70;92.50;;;;;;487165;244;28821;-82
2023/05/31 07:40:37;;;;;;;5.20;2.40;;;16.70;92.30;;;;;;487161;244;28810;-82
2023/05/31 07:42:38;;;;;;;8.13;3.40;;;16.80;92.50;;;;;;487158;244;28869;-83
2023/05/31 07:44:40;;;;;;;8.80;3.40;;;16.80;92.10;;;;;;487124;244;28819;-81
2023/05/31 07:46:41;;;;;;;6.93;3.10;;;16.80;92.20;;;;;;487143;244;28809;-82
2023/05/31 07:48:42;;;;;;;6.97;3.03;;;16.80;91.70;;;;;;487134;244;29263;-82
2023/05/31 07:50:43;;;;;;;4.93;2.73;;;16.90;92.10;;;;;;487131;244;29329;-82
2023/05/31 07:52:49;;;;;;;9.63;3.40;;;17.10;91.80;;;;;;487144;244;29363;-83
2023/05/31 07:54:46;;;;;;;8.93;3.17;;;17.00;90.70;;;;;;486728;244;28935;-81
2023/05/31 07:56:47;;;;;;;5.10;2.50;;;17.00;91.30;;;;;;487150;244;28798;-83
2023/05/31 07:58:48;;;;;;;6.93;2.60;;;17.20;91.60;;;;;;487170;244;28905;-81
2023/05/31 08:00:52;;;;;;;9.17;2.73;;;17.20;91.00;;;;;;487158;244;28787;-82
2023/05/31 08:02:51;;;;;;;3.80;2.67;;;17.30;91.10;;;;;;487031;244;28821;-81
2023/05/31 08:04:54;;;;;;;5.60;3.27;;;17.30;91.20;;;;;;487098;241;28908;-81
2023/05/31 08:06:53;;;;;;;4.40;2.70;;;17.50;91.60;;;;;;487106;244;28837;-82
2023/05/31 08:08:55;;;;;;;6.60;2.60;;;17.80;90.70;;;;;;487137;244;28817;-82
2023/05/31 08:10:56;;;;;;;4.10;3.00;;;17.70;90.30;;;;;;487157;244;28826;-82
2023/05/31 08:12:57;;;;;;;6.20;3.10;;;17.80;90.60;;;;;;487138;244;29353;-81
2023/05/31 08:14:58;;;;;;;5.13;2.90;;;17.90;89.60;;;;;;487101;244;29383;-82
2023/05/31 08:17:00;;;;;;;6.13;3.53;;;17.70;89.00;;;;;;487147;244;29370;-81
2023/05/31 08:19:01;;;;;;;5.93;2.80;;;17.70;88.20;;;;;;487137;244;29264;-81
2023/05/31 08:21:02;;;;;;;7.50;3.37;;;17.70;90.20;;;;;;487143;244;28886;-82
2023/05/31 08:23:03;;;;;;;9.43;3.60;;;17.70;90.00;;;;;;487117;244;28829;-81
2023/05/31 08:25:05;;;;;;;6.30;3.03;;;17.80;89.40;;;;;;487109;244;28838;-80
2023/05/31 08:27:06;;;;;;;9.83;2.73;;;17.70;89.10;;;;;;487140;244;28909;-82
2023/05/31 08:29:07;;;;;;;8.63;3.10;;;17.90;90.00;;;;;;487163;244;28810;-81
2023/05/31 08:31:08;;;;;;;4.37;2.83;;;18.10;89.60;;;;;;487136;244;28891;-83
2023/05/31 08:33:10;;;;;;;3.67;2.93;;;18.10;87.70;;;;;;487143;241;28817;-82
2023/05/31 08:35:12;;;;;;;7.00;3.23;;;18.10;89.00;;;;;;487083;244;28907;-81
2023/05/31 08:37:12;;;;;;;5.90;3.13;;;18.30;88.40;;;;;;487109;244;29197;-82
2023/05/31 08:39:13;;;;;;;5.30;3.30;;;18.40;87.70;;;;;;487134;244;29299;-80
2023/05/31 08:41:15;;;;;;;7.07;2.70;;;18.50;88.80;;;;;;487159;244;29357;-81
2023/05/31 08:43:20;;;;;;;4.43;3.10;;;18.60;87.70;;;;;;487124;241;29294;-82
2023/05/31 08:45:17;;;;;;;7.27;3.80;;;18.70;86.80;;;;;;486986;244;28816;-80
2023/05/31 08:47:18;;;;;;;5.93;3.10;;;18.60;85.60;;;;;;487148;241;28881;-82
2023/05/31 08:49:20;;;;;;;8.20;3.07;;;18.50;85.40;;;;;;487132;244;28813;-82
2023/05/31 08:51:21;;;;;;;8.10;2.90;;;18.60;84.90;;;;;;487152;244;28905;-83
2023/05/31 08:53:22;;;;;;;6.13;3.47;;;18.60;84.80;;;;;;487143;244;28814;-82
2023/05/31 08:55:23;;;;;;;6.57;3.13;;;18.80;86.10;;;;;;487098;244;28832;-80
2023/05/31 08:57:26;;;;;;;8.30;3.20;;;18.80;85.80;;;;;;487139;244;28846;-81
2023/05/31 08:59:26;;;;;;;7.50;2.60;;;18.80;84.40;;;;;;487063;244;28823;-82
2023/05/31 09:01:28;;;;;;;7.00;3.23;;;18.90;84.40;;;;;;487111;244;28806;-81
2023/05/31 09:03:28;;;;;;;6.60;3.43;;;19.00;84.30;;;;;;487088;244;29297;-81
2023/05/31 09:05:30;;;;;;;7.30;3.50;;;19.20;84.40;;;;;;487089;244;29247;-80
2023/05/31 09:07:31;;;;;;;4.93;3.30;;;19.30;82.30;;;;;;487134;244;29272;-82
2023/05/31 09:09:32;;;;;;;6.47;3.23;;;19.30;84.30;;;;;;487151;244;28810;-81
2023/05/31 09:11:37;;;;;;;7.77;3.37;;;19.70;81.60;;;;;;487146;244;28844;-82
2023/05/31 09:13:35;;;;;;;7.27;3.13;;;19.60;83.10;;;;;;486987;244;28874;-80
2023/05/31 09:15:36;;;;;;;7.87;3.40;;;19.70;81.00;;;;;;487094;244;28805;-80
2023/05/31 09:17:37;;;;;;;4.03;3.10;;;19.60;81.60;;;;;;487122;244;28798;-81
2023/05/31 09:19:38;;;;;;;6.83;3.10;;;19.60;83.00;;;;;;487126;244;28904;-81
2023/05/31 09:21:40;;;;;;;7.20;2.63;;;19.50;79.20;;;;;;483537;240;28875;-82
2023/05/31 09:23:41;;;;;;;4.93;2.80;;;19.40;79.80;;;;;;473234;250;28868;-81
2023/05/31 09:25:42;;;;;;;7.33;3.50;;;19.50;79.60;;;;;;473201;250;28808;-80
2023/05/31 09:27:43;;;;;;;7.73;3.20;;;19.50;82.70;;;;;;473233;250;29395;-81
2023/05/31 09:29:45;;;;;;;8.93;3.20;;;19.50;80.60;;;;;;473229;250;29280;-82
2023/05/31 09:31:46;;;;;;;11.33;3.33;;;19.70;81.70;;;;;;473241;250;29289;-81
2023/05/31 09:33:54;;;;;;;6.57;3.25;;;20.00;81.10;;;;;;472075;250;36446;-82
2023/05/31 09:35:51;;;;;;;5.77;3.27;;;19.90;78.80;;;;;;472784;251;27438;-83
2023/05/31 09:37:52;;;;;;;4.23;3.10;;;19.70;77.00;;;;;;473240;250;28877;-81
2023/05/31 09:39:54;;;;;;;6.50;3.20;;;19.60;77.20;;;;;;473246;250;28795;-81
2023/05/31 09:41:55;;;;;;;4.27;3.13;;;19.60;78.40;;;;;;473224;250;28892;-80
2023/05/31 09:43:56;;;;;;;5.27;2.40;;;19.50;77.90;;;;;;473245;250;28890;-82
2023/05/31 09:45:58;;;;;;;14.23;2.80;;;19.80;80.20;;;;;;473224;250;28885;-82
2023/05/31 09:47:59;;;;;;;8.50;2.90;;;19.90;77.80;;;;;;473255;250;28812;-81
2023/05/31 09:50:00;;;;;;;5.87;2.57;;;20.00;76.80;;;;;;473243;250;29264;-81
2023/05/31 09:52:01;;;;;;;3.70;2.57;;;19.80;76.30;;;;;;473266;250;29257;-81
2023/05/31 09:54:07;;;;;;;5.77;3.17;;;19.90;77.00;;;;;;473258;250;29389;-81
2023/05/31 09:56:04;;;;;;;5.00;2.70;;;20.00;77.90;;;;;;472925;251;28907;-82
2023/05/31 09:58:05;;;;;;;6.03;2.73;;;20.00;78.60;;;;;;473263;250;28807;-80
2023/05/31 10:00:12;;;;;;;7.23;3.23;;;20.00;78.80;;;;;;473264;250;28791;-81
2023/05/31 10:02:07;;;;;;;6.17;2.70;;;20.10;76.10;;;;;;472885;251;28919;-81
2023/05/31 10:04:09;;;;;;;10.10;2.67;;;20.10;77.10;;;;;;473247;250;28905;-82
2023/05/31 10:06:11;;;;;;;8.43;2.73;;;20.20;77.00;;;;;;473224;250;28862;-80
2023/05/31 10:08:11;;;;;;;6.87;2.80;;;20.30;76.40;;;;;;473231;250;28816;-79
2023/05/31 10:10:13;;;;;;;7.87;2.87;;;20.20;74.30;;;;;;473256;250;28811;-81
2023/05/31 10:12:14;;;;;;;4.80;2.70;;;20.20;74.40;;;;;;473238;250;28804;-81
2023/05/31 10:14:15;;;;;;;7.03;3.27;;;20.40;76.00;;;;;;473241;250;29390;-82
2023/05/31 10:16:16;;;;;;;5.43;2.83;;;20.60;76.00;;;;;;473226;250;29388;-82
2023/05/31 10:18:17;;;;;;;27.40;5.60;;;20.90;75.50;;;;;;473237;250;29279;-80
2023/05/31 10:20:19;;;;;;;6.30;2.90;;;20.80;74.00;;;;;;473267;250;28796;-83
2023/05/31 10:22:20;;;;;;;6.83;2.70;;;20.60;72.90;;;;;;473245;250;28896;-81
2023/05/31 10:24:21;;;;;;;6.23;3.00;;;20.70;71.80;;;;;;473202;250;28792;-81
2023/05/31 10:26:23;;;;;;;5.90;2.80;;;20.60;72.50;;;;;;473251;250;28876;-83
2023/05/31 10:28:24;;;;;;;3.50;2.43;;;20.50;73.10;;;;;;473261;250;28801;-80
2023/05/31 10:30:26;;;;;;;7.23;3.03;;;20.60;72.50;;;;;;473251;250;28789;-82
2023/05/31 10:32:26;;;;;;;4.43;2.77;;;20.60;72.40;;;;;;473263;250;28877;-81